Terminal Aerodrome Forecast
Issued by NWS

Current Version | Previous Version | Text Only | Print | Product List | Glossary Off
Versions: 1 2 3 4 5 6 7 8 9 10 11 12 13 14 15 16 17 18 19 20 21 22 23 24 25 26

000
FTUS41 KRLX 270900 AAA
TAFCKB
TAF AMD
KCKB 270904Z 2709/2806 17004KT P6SM SCT030 BKN100
      TEMPO 2709/2712 BKN030
     FM271500 22008KT P6SM VCTS BKN050CB
     FM271900 24010G20KT 5SM TSRA BKN040CB
     FM272300 25010G20KT P6SM BKN050
     FM280300 28008KT P6SM BKN035=

USA.gov is the U.S. government's official web portal to all federal, state and local government web resources and services.